Crooked Creek, Alaska
Current Conditions -  °F | °C
As of 4:16 AM on Thursday 30 Oct 2014 (Local Time) from PASL Reporting Station
Overcast Overcast  
Wind Chill: 21°   Ceiling: 1600
Heat Index: 21°   Visibility: 10mi
Dew Point: 10°   Wind: 0mph
Humidity: 63%   Direction: NA
Pressure: 29.87"   Gusts: NA
Location:  61.88°N, 158.15°W
Report Text: PASL 301216Z AUTO 00000KT 10SM OVC016 M06/M12 A2987 RMK AO1
Loading
Personal Weather Stations






























Interactive Weather Map
Tropical Storm Tracking
New forecast layout! Learn more

10-Day Weather Forecast

Advertisements
Track Severe Weather on mobile